sensor_id;sensor_type;location;lat;lon;timestamp;P1;durP1;ratioP1;P2;durP2;ratioP2
20861;SDS011;10591;52.532;13.348;2023-02-17T00:01:20;30.20;;;20.35;;
20861;SDS011;10591;52.532;13.348;2023-02-17T00:03:52;29.80;;;20.57;;
20861;SDS011;10591;52.532;13.348;2023-02-17T00:06:24;33.70;;;21.62;;
20861;SDS011;10591;52.532;13.348;2023-02-17T00:08:56;32.15;;;21.45;;
20861;SDS011;10591;52.532;13.348;2023-02-17T00:11:29;31.15;;;21.62;;
20861;SDS011;10591;52.532;13.348;2023-02-17T00:14:01;28.98;;;21.90;;
20861;SDS011;10591;52.532;13.348;2023-02-17T00:16:32;31.73;;;22.55;;
20861;SDS011;10591;52.532;13.348;2023-02-17T00:19:03;31.23;;;22.75;;
20861;SDS011;10591;52.532;13.348;2023-02-17T00:21:35;33.92;;;22.40;;
20861;SDS011;10591;52.532;13.348;2023-02-17T00:24:06;34.98;;;24.25;;
20861;SDS011;10591;52.532;13.348;2023-02-17T00:26:37;30.60;;;22.62;;
20861;SDS011;10591;52.532;13.348;2023-02-17T00:29:08;34.63;;;23.98;;
20861;SDS011;10591;52.532;13.348;2023-02-17T00:31:38;31.07;;;22.00;;
20861;SDS011;10591;52.532;13.348;2023-02-17T00:34:10;34.35;;;22.80;;
20861;SDS011;10591;52.532;13.348;2023-02-17T00:36:43;32.10;;;22.85;;
20861;SDS011;10591;52.532;13.348;2023-02-17T00:39:15;33.40;;;22.80;;
20861;SDS011;10591;52.532;13.348;2023-02-17T00:41:47;32.00;;;22.37;;
20861;SDS011;10591;52.532;13.348;2023-02-17T00:44:19;30.92;;;22.30;;
20861;SDS011;10591;52.532;13.348;2023-02-17T00:46:51;33.60;;;23.25;;
20861;SDS011;10591;52.532;13.348;2023-02-17T00:49:23;32.28;;;23.60;;
20861;SDS011;10591;52.532;13.348;2023-02-17T00:51:58;32.53;;;22.48;;
20861;SDS011;10591;52.532;13.348;2023-02-17T00:54:31;32.67;;;23.52;;
20861;SDS011;10591;52.532;13.348;2023-02-17T00:57:04;35.50;;;24.25;;
20861;SDS011;10591;52.532;13.348;2023-02-17T00:59:34;31.20;;;23.22;;
20861;SDS011;10591;52.532;13.348;2023-02-17T01:02:07;32.58;;;23.20;;
20861;SDS011;10591;52.532;13.348;2023-02-17T01:04:43;34.60;;;23.47;;
20861;SDS011;10591;52.532;13.348;2023-02-17T01:07:15;31.10;;;23.20;;
20861;SDS011;10591;52.532;13.348;2023-02-17T01:09:45;35.25;;;24.07;;
20861;SDS011;10591;52.532;13.348;2023-02-17T01:12:16;35.45;;;24.07;;
20861;SDS011;10591;52.532;13.348;2023-02-17T01:14:47;35.08;;;22.82;;
20861;SDS011;10591;52.532;13.348;2023-02-17T01:17:18;32.00;;;22.87;;
20861;SDS011;10591;52.532;13.348;2023-02-17T01:19:50;32.90;;;22.90;;
20861;SDS011;10591;52.532;13.348;2023-02-17T01:22:22;33.80;;;23.65;;
20861;SDS011;10591;52.532;13.348;2023-02-17T01:24:53;35.75;;;24.05;;
20861;SDS011;10591;52.532;13.348;2023-02-17T01:27:26;32.40;;;23.52;;
20861;SDS011;10591;52.532;13.348;2023-02-17T01:29:57;33.70;;;23.22;;
20861;SDS011;10591;52.532;13.348;2023-02-17T01:32:28;34.27;;;23.60;;
20861;SDS011;10591;52.532;13.348;2023-02-17T01:35:00;31.73;;;22.80;;
20861;SDS011;10591;52.532;13.348;2023-02-17T01:37:34;37.70;;;24.12;;
20861;SDS011;10591;52.532;13.348;2023-02-17T01:40:05;33.20;;;22.35;;
20861;SDS011;10591;52.532;13.348;2023-02-17T01:42:36;32.90;;;22.30;;
20861;SDS011;10591;52.532;13.348;2023-02-17T01:50:35;32.15;;;22.95;;
20861;SDS011;10591;52.532;13.348;2023-02-17T01:53:13;33.70;;;22.82;;
20861;SDS011;10591;52.532;13.348;2023-02-17T01:55:50;34.53;;;23.38;;
20861;SDS011;10591;52.532;13.348;2023-02-17T01:58:22;32.45;;;22.58;;
20861;SDS011;10591;52.532;13.348;2023-02-17T02:00:54;34.80;;;22.67;;
20861;SDS011;10591;52.532;13.348;2023-02-17T02:03:29;33.45;;;22.67;;
20861;SDS011;10591;52.532;13.348;2023-02-17T02:06:05;32.58;;;23.05;;
20861;SDS011;10591;52.532;13.348;2023-02-17T02:08:46;34.88;;;23.50;;
20861;SDS011;10591;52.532;13.348;2023-02-17T02:11:20;35.13;;;23.18;;
20861;SDS011;10591;52.532;13.348;2023-02-17T02:13:51;36.55;;;23.87;;
20861;SDS011;10591;52.532;13.348;2023-02-17T02:24:57;41.02;;;25.82;;
20861;SDS011;10591;52.532;13.348;2023-02-17T02:27:44;37.80;;;25.17;;
20861;SDS011;10591;52.532;13.348;2023-02-17T02:36:08;41.20;;;25.52;;
20861;SDS011;10591;52.532;13.348;2023-02-17T02:38:38;41.50;;;27.27;;
20861;SDS011;10591;52.532;13.348;2023-02-17T02:41:18;39.03;;;25.20;;
20861;SDS011;10591;52.532;13.348;2023-02-17T02:43:53;38.28;;;25.55;;
20861;SDS011;10591;52.532;13.348;2023-02-17T02:46:24;41.60;;;26.70;;
20861;SDS011;10591;52.532;13.348;2023-02-17T02:48:54;41.02;;;26.30;;
20861;SDS011;10591;52.532;13.348;2023-02-17T02:54:09;41.77;;;26.37;;
20861;SDS011;10591;52.532;13.348;2023-02-17T02:59:43;42.40;;;26.95;;
20861;SDS011;10591;52.532;13.348;2023-02-17T03:05:31;38.05;;;26.05;;
20861;SDS011;10591;52.532;13.348;2023-02-17T03:08:18;42.10;;;26.40;;
20861;SDS011;10591;52.532;13.348;2023-02-17T03:10:53;39.98;;;26.62;;
20861;SDS011;10591;52.532;13.348;2023-02-17T03:13:25;44.23;;;26.93;;
20861;SDS011;10591;52.532;13.348;2023-02-17T03:15:56;45.03;;;28.60;;
20861;SDS011;10591;52.532;13.348;2023-02-17T03:18:27;44.20;;;27.58;;
20861;SDS011;10591;52.532;13.348;2023-02-17T03:21:02;41.08;;;27.30;;
20861;SDS011;10591;52.532;13.348;2023-02-17T03:23:37;42.62;;;26.65;;
20861;SDS011;10591;52.532;13.348;2023-02-17T03:26:07;44.33;;;27.62;;
20861;SDS011;10591;52.532;13.348;2023-02-17T03:28:38;48.40;;;27.75;;
20861;SDS011;10591;52.532;13.348;2023-02-17T03:31:08;45.23;;;28.25;;
20861;SDS011;10591;52.532;13.348;2023-02-17T03:33:39;45.30;;;28.02;;
20861;SDS011;10591;52.532;13.348;2023-02-17T03:36:14;49.70;;;28.57;;
20861;SDS011;10591;52.532;13.348;2023-02-17T03:38:44;43.78;;;27.40;;
20861;SDS011;10591;52.532;13.348;2023-02-17T03:41:15;48.50;;;28.98;;
20861;SDS011;10591;52.532;13.348;2023-02-17T03:43:46;44.70;;;27.65;;
20861;SDS011;10591;52.532;13.348;2023-02-17T03:46:17;40.85;;;27.67;;
20861;SDS011;10591;52.532;13.348;2023-02-17T03:48:48;46.80;;;28.62;;
20861;SDS011;10591;52.532;13.348;2023-02-17T03:51:20;43.70;;;28.12;;
20861;SDS011;10591;52.532;13.348;2023-02-17T03:53:52;46.83;;;28.52;;
20861;SDS011;10591;52.532;13.348;2023-02-17T03:56:22;44.75;;;29.07;;
20861;SDS011;10591;52.532;13.348;2023-02-17T03:58:53;47.23;;;28.83;;
20861;SDS011;10591;52.532;13.348;2023-02-17T04:01:23;45.23;;;29.10;;
20861;SDS011;10591;52.532;13.348;2023-02-17T04:03:54;47.45;;;28.62;;
20861;SDS011;10591;52.532;13.348;2023-02-17T04:06:24;47.55;;;28.95;;
20861;SDS011;10591;52.532;13.348;2023-02-17T04:08:55;44.25;;;29.82;;
20861;SDS011;10591;52.532;13.348;2023-02-17T04:11:26;45.78;;;28.42;;
20861;SDS011;10591;52.532;13.348;2023-02-17T04:13:56;46.60;;;28.90;;
20861;SDS011;10591;52.532;13.348;2023-02-17T04:16:27;44.17;;;27.60;;
20861;SDS011;10591;52.532;13.348;2023-02-17T04:18:57;44.83;;;26.68;;
20861;SDS011;10591;52.532;13.348;2023-02-17T04:21:31;45.48;;;28.25;;
20861;SDS011;10591;52.532;13.348;2023-02-17T04:24:02;46.98;;;28.65;;
20861;SDS011;10591;52.532;13.348;2023-02-17T04:26:34;42.97;;;26.53;;
20861;SDS011;10591;52.532;13.348;2023-02-17T04:29:08;41.55;;;27.07;;
20861;SDS011;10591;52.532;13.348;2023-02-17T04:31:42;42.40;;;26.90;;
20861;SDS011;10591;52.532;13.348;2023-02-17T04:34:13;41.00;;;26.70;;
20861;SDS011;10591;52.532;13.348;2023-02-17T04:36:44;43.68;;;28.20;;
20861;SDS011;10591;52.532;13.348;2023-02-17T04:39:14;43.20;;;27.87;;
20861;SDS011;10591;52.532;13.348;2023-02-17T04:41:45;37.45;;;25.48;;
20861;SDS011;10591;52.532;13.348;2023-02-17T04:44:17;40.35;;;27.48;;
20861;SDS011;10591;52.532;13.348;2023-02-17T04:46:47;40.35;;;26.87;;
20861;SDS011;10591;52.532;13.348;2023-02-17T04:49:18;39.95;;;26.62;;
20861;SDS011;10591;52.532;13.348;2023-02-17T04:51:48;42.05;;;26.52;;
20861;SDS011;10591;52.532;13.348;2023-02-17T04:54:19;39.45;;;26.77;;
20861;SDS011;10591;52.532;13.348;2023-02-17T04:56:54;42.58;;;26.95;;
20861;SDS011;10591;52.532;13.348;2023-02-17T04:59:24;41.50;;;26.43;;
20861;SDS011;10591;52.532;13.348;2023-02-17T05:01:57;41.00;;;26.52;;
20861;SDS011;10591;52.532;13.348;2023-02-17T05:04:30;39.98;;;27.20;;
20861;SDS011;10591;52.532;13.348;2023-02-17T05:07:02;39.08;;;26.68;;
20861;SDS011;10591;52.532;13.348;2023-02-17T05:09:32;41.02;;;26.90;;
20861;SDS011;10591;52.532;13.348;2023-02-17T05:12:03;41.53;;;26.37;;
20861;SDS011;10591;52.532;13.348;2023-02-17T05:14:35;43.48;;;26.87;;
20861;SDS011;10591;52.532;13.348;2023-02-17T05:17:08;41.08;;;26.73;;
20861;SDS011;10591;52.532;13.348;2023-02-17T05:19:38;41.83;;;27.55;;
20861;SDS011;10591;52.532;13.348;2023-02-17T05:22:09;42.85;;;28.15;;
20861;SDS011;10591;52.532;13.348;2023-02-17T05:24:39;41.50;;;26.73;;
20861;SDS011;10591;52.532;13.348;2023-02-17T05:27:10;41.60;;;26.97;;
20861;SDS011;10591;52.532;13.348;2023-02-17T05:29:42;43.42;;;27.42;;
20861;SDS011;10591;52.532;13.348;2023-02-17T05:32:13;44.18;;;27.15;;
20861;SDS011;10591;52.532;13.348;2023-02-17T05:34:44;44.70;;;27.70;;
20861;SDS011;10591;52.532;13.348;2023-02-17T05:37:18;44.38;;;27.13;;
20861;SDS011;10591;52.532;13.348;2023-02-17T05:39:54;41.63;;;26.60;;
20861;SDS011;10591;52.532;13.348;2023-02-17T05:42:20;43.23;;;27.70;;
20861;SDS011;10591;52.532;13.348;2023-02-17T05:44:55;40.78;;;26.57;;
20861;SDS011;10591;52.532;13.348;2023-02-17T05:47:26;41.37;;;26.77;;
20861;SDS011;10591;52.532;13.348;2023-02-17T05:49:57;43.68;;;27.55;;
20861;SDS011;10591;52.532;13.348;2023-02-17T05:52:28;38.25;;;25.90;;
20861;SDS011;10591;52.532;13.348;2023-02-17T05:54:58;43.80;;;27.40;;
20861;SDS011;10591;52.532;13.348;2023-02-17T05:57:31;39.05;;;25.72;;
20861;SDS011;10591;52.532;13.348;2023-02-17T06:00:02;41.28;;;26.35;;
20861;SDS011;10591;52.532;13.348;2023-02-17T06:02:35;41.65;;;26.23;;
20861;SDS011;10591;52.532;13.348;2023-02-17T06:05:09;39.67;;;26.23;;
20861;SDS011;10591;52.532;13.348;2023-02-17T06:07:39;45.17;;;27.35;;
20861;SDS011;10591;52.532;13.348;2023-02-17T06:10:10;41.40;;;26.17;;
20861;SDS011;10591;52.532;13.348;2023-02-17T06:12:42;40.95;;;25.62;;
20861;SDS011;10591;52.532;13.348;2023-02-17T06:15:13;38.60;;;25.30;;
20861;SDS011;10591;52.532;13.348;2023-02-17T06:17:44;40.30;;;26.35;;
20861;SDS011;10591;52.532;13.348;2023-02-17T06:20:15;40.55;;;25.80;;
20861;SDS011;10591;52.532;13.348;2023-02-17T06:22:46;37.93;;;25.65;;
20861;SDS011;10591;52.532;13.348;2023-02-17T06:25:17;37.35;;;25.25;;
20861;SDS011;10591;52.532;13.348;2023-02-17T06:27:48;38.45;;;25.68;;
20861;SDS011;10591;52.532;13.348;2023-02-17T06:30:18;41.20;;;25.92;;
20861;SDS011;10591;52.532;13.348;2023-02-17T06:32:50;37.67;;;25.12;;
20861;SDS011;10591;52.532;13.348;2023-02-17T06:35:24;38.65;;;24.52;;
20861;SDS011;10591;52.532;13.348;2023-02-17T06:37:55;39.53;;;24.90;;
20861;SDS011;10591;52.532;13.348;2023-02-17T06:40:25;36.60;;;23.40;;
20861;SDS011;10591;52.532;13.348;2023-02-17T06:42:56;40.60;;;24.55;;
20861;SDS011;10591;52.532;13.348;2023-02-17T06:45:28;37.98;;;24.90;;
20861;SDS011;10591;52.532;13.348;2023-02-17T06:48:01;33.15;;;23.47;;
20861;SDS011;10591;52.532;13.348;2023-02-17T06:50:31;36.83;;;24.37;;
20861;SDS011;10591;52.532;13.348;2023-02-17T06:53:02;34.92;;;22.40;;
20861;SDS011;10591;52.532;13.348;2023-02-17T06:55:33;32.65;;;22.85;;
20861;SDS011;10591;52.532;13.348;2023-02-17T06:58:05;34.88;;;22.67;;
20861;SDS011;10591;52.532;13.348;2023-02-17T07:00:36;36.28;;;23.98;;
20861;SDS011;10591;52.532;13.348;2023-02-17T07:03:07;35.03;;;22.35;;
20861;SDS011;10591;52.532;13.348;2023-02-17T07:05:38;34.80;;;23.10;;
20861;SDS011;10591;52.532;13.348;2023-02-17T07:08:08;35.50;;;22.80;;
20861;SDS011;10591;52.532;13.348;2023-02-17T07:10:39;32.00;;;22.02;;
20861;SDS011;10591;52.532;13.348;2023-02-17T07:13:10;29.07;;;21.60;;
20861;SDS011;10591;52.532;13.348;2023-02-17T07:15:40;32.33;;;21.35;;
20861;SDS011;10591;52.532;13.348;2023-02-17T07:18:13;28.35;;;20.75;;
20861;SDS011;10591;52.532;13.348;2023-02-17T07:20:43;32.33;;;21.48;;
20861;SDS011;10591;52.532;13.348;2023-02-17T07:23:16;30.72;;;20.23;;
20861;SDS011;10591;52.532;13.348;2023-02-17T07:25:48;29.77;;;20.57;;
20861;SDS011;10591;52.532;13.348;2023-02-17T07:28:20;27.87;;;19.50;;
20861;SDS011;10591;52.532;13.348;2023-02-17T07:30:51;29.75;;;19.00;;
20861;SDS011;10591;52.532;13.348;2023-02-17T07:33:22;28.87;;;20.17;;
20861;SDS011;10591;52.532;13.348;2023-02-17T07:35:59;28.98;;;19.52;;
20861;SDS011;10591;52.532;13.348;2023-02-17T07:38:28;26.97;;;19.10;;
20861;SDS011;10591;52.532;13.348;2023-02-17T07:41:08;24.77;;;18.40;;
20861;SDS011;10591;52.532;13.348;2023-02-17T07:43:42;23.02;;;18.07;;
20861;SDS011;10591;52.532;13.348;2023-02-17T07:46:18;24.02;;;17.20;;
20861;SDS011;10591;52.532;13.348;2023-02-17T07:48:50;22.98;;;17.25;;
20861;SDS011;10591;52.532;13.348;2023-02-17T07:51:23;22.70;;;17.40;;
20861;SDS011;10591;52.532;13.348;2023-02-17T07:53:56;21.45;;;16.60;;
20861;SDS011;10591;52.532;13.348;2023-02-17T07:56:31;22.55;;;17.02;;
20861;SDS011;10591;52.532;13.348;2023-02-17T07:59:12;24.75;;;17.60;;
20861;SDS011;10591;52.532;13.348;2023-02-17T08:01:40;22.87;;;16.95;;
20861;SDS011;10591;52.532;13.348;2023-02-17T08:04:13;22.15;;;17.02;;
20861;SDS011;10591;52.532;13.348;2023-02-17T08:06:44;20.65;;;16.05;;
20861;SDS011;10591;52.532;13.348;2023-02-17T08:09:16;20.50;;;16.25;;
20861;SDS011;10591;52.532;13.348;2023-02-17T08:12:08;21.07;;;16.20;;
20861;SDS011;10591;52.532;13.348;2023-02-17T08:14:57;20.75;;;15.40;;
20861;SDS011;10591;52.532;13.348;2023-02-17T08:17:29;21.73;;;15.75;;
20861;SDS011;10591;52.532;13.348;2023-02-17T08:20:00;21.52;;;15.35;;
20861;SDS011;10591;52.532;13.348;2023-02-17T08:22:37;19.07;;;15.08;;
20861;SDS011;10591;52.532;13.348;2023-02-17T08:25:08;18.60;;;13.90;;
20861;SDS011;10591;52.532;13.348;2023-02-17T08:27:40;18.90;;;14.63;;
20861;SDS011;10591;52.532;13.348;2023-02-17T08:30:12;20.70;;;15.25;;
20861;SDS011;10591;52.532;13.348;2023-02-17T08:32:43;19.82;;;15.35;;
20861;SDS011;10591;52.532;13.348;2023-02-17T08:35:15;19.77;;;15.48;;
20861;SDS011;10591;52.532;13.348;2023-02-17T08:37:48;18.73;;;14.60;;
20861;SDS011;10591;52.532;13.348;2023-02-17T08:40:19;22.98;;;15.23;;
20861;SDS011;10591;52.532;13.348;2023-02-17T08:42:52;20.55;;;15.80;;
20861;SDS011;10591;52.532;13.348;2023-02-17T08:45:22;19.00;;;15.05;;
20861;SDS011;10591;52.532;13.348;2023-02-17T08:47:52;21.75;;;16.25;;
20861;SDS011;10591;52.532;13.348;2023-02-17T08:50:23;21.42;;;15.88;;
20861;SDS011;10591;52.532;13.348;2023-02-17T08:52:53;20.65;;;15.58;;
20861;SDS011;10591;52.532;13.348;2023-02-17T08:55:25;20.92;;;15.83;;
20861;SDS011;10591;52.532;13.348;2023-02-17T08:57:57;19.02;;;15.05;;
20861;SDS011;10591;52.532;13.348;2023-02-17T09:00:28;18.90;;;15.55;;
20861;SDS011;10591;52.532;13.348;2023-02-17T09:02:58;20.30;;;15.95;;
20861;SDS011;10591;52.532;13.348;2023-02-17T09:05:29;20.68;;;15.68;;
20861;SDS011;10591;52.532;13.348;2023-02-17T09:08:02;19.90;;;15.48;;
20861;SDS011;10591;52.532;13.348;2023-02-17T09:10:34;21.40;;;15.80;;
20861;SDS011;10591;52.532;13.348;2023-02-17T09:13:05;20.97;;;15.78;;
20861;SDS011;10591;52.532;13.348;2023-02-17T09:15:35;22.35;;;16.05;;
20861;SDS011;10591;52.532;13.348;2023-02-17T09:18:07;21.57;;;16.17;;
20861;SDS011;10591;52.532;13.348;2023-02-17T09:20:38;19.92;;;15.15;;
20861;SDS011;10591;52.532;13.348;2023-02-17T09:23:10;21.93;;;16.25;;
20861;SDS011;10591;52.532;13.348;2023-02-17T09:25:41;22.65;;;15.83;;
20861;SDS011;10591;52.532;13.348;2023-02-17T09:28:13;22.82;;;16.20;;
20861;SDS011;10591;52.532;13.348;2023-02-17T09:30:46;21.00;;;16.65;;
20861;SDS011;10591;52.532;13.348;2023-02-17T09:33:17;20.62;;;15.43;;
20861;SDS011;10591;52.532;13.348;2023-02-17T09:35:48;19.90;;;15.55;;
20861;SDS011;10591;52.532;13.348;2023-02-17T09:38:19;21.45;;;15.72;;
20861;SDS011;10591;52.532;13.348;2023-02-17T09:40:53;19.95;;;15.85;;
20861;SDS011;10591;52.532;13.348;2023-02-17T09:43:25;22.48;;;16.90;;
20861;SDS011;10591;52.532;13.348;2023-02-17T09:45:59;22.58;;;17.05;;
20861;SDS011;10591;52.532;13.348;2023-02-17T09:48:32;21.40;;;16.50;;
20861;SDS011;10591;52.532;13.348;2023-02-17T09:51:05;19.37;;;16.02;;
20861;SDS011;10591;52.532;13.348;2023-02-17T09:56:36;23.50;;;17.55;;
20861;SDS011;10591;52.532;13.348;2023-02-17T09:59:22;25.88;;;18.10;;
20861;SDS011;10591;52.532;13.348;2023-02-17T10:02:00;22.48;;;17.50;;
20861;SDS011;10591;52.532;13.348;2023-02-17T10:04:38;21.75;;;17.20;;
20861;SDS011;10591;52.532;13.348;2023-02-17T10:07:29;24.63;;;17.60;;
20861;SDS011;10591;52.532;13.348;2023-02-17T10:10:06;19.95;;;16.62;;
20861;SDS011;10591;52.532;13.348;2023-02-17T10:12:40;23.00;;;18.07;;
20861;SDS011;10591;52.532;13.348;2023-02-17T10:15:23;21.60;;;17.55;;
20861;SDS011;10591;52.532;13.348;2023-02-17T10:17:56;25.08;;;17.95;;
20861;SDS011;10591;52.532;13.348;2023-02-17T10:20:52;22.48;;;18.00;;
20861;SDS011;10591;52.532;13.348;2023-02-17T10:23:15;22.25;;;17.98;;
20861;SDS011;10591;52.532;13.348;2023-02-17T10:29:02;24.07;;;17.75;;
20861;SDS011;10591;52.532;13.348;2023-02-17T10:34:36;22.98;;;17.67;;
20861;SDS011;10591;52.532;13.348;2023-02-17T10:40:19;23.18;;;17.85;;
20861;SDS011;10591;52.532;13.348;2023-02-17T10:42:58;22.20;;;17.40;;
20861;SDS011;10591;52.532;13.348;2023-02-17T10:48:08;24.25;;;17.55;;
20861;SDS011;10591;52.532;13.348;2023-02-17T10:50:50;22.25;;;16.25;;
20861;SDS011;10591;52.532;13.348;2023-02-17T10:53:24;22.58;;;16.55;;
20861;SDS011;10591;52.532;13.348;2023-02-17T10:56:02;21.55;;;17.05;;
20861;SDS011;10591;52.532;13.348;2023-02-17T10:58:55;21.02;;;16.50;;
20861;SDS011;10591;52.532;13.348;2023-02-17T11:01:32;22.40;;;16.57;;
20861;SDS011;10591;52.532;13.348;2023-02-17T11:04:05;25.30;;;17.20;;
20861;SDS011;10591;52.532;13.348;2023-02-17T11:06:43;21.60;;;17.23;;
20861;SDS011;10591;52.532;13.348;2023-02-17T11:09:18;21.57;;;16.82;;
20861;SDS011;10591;52.532;13.348;2023-02-17T11:12:14;21.68;;;16.55;;
20861;SDS011;10591;52.532;13.348;2023-02-17T11:14:33;18.85;;;15.88;;
20861;SDS011;10591;52.532;13.348;2023-02-17T11:17:13;23.35;;;17.62;;
20861;SDS011;10591;52.532;13.348;2023-02-17T11:19:59;22.20;;;17.07;;
20861;SDS011;10591;52.532;13.348;2023-02-17T11:22:39;19.15;;;16.87;;
20861;SDS011;10591;52.532;13.348;2023-02-17T11:25:25;20.23;;;15.85;;
20861;SDS011;10591;52.532;13.348;2023-02-17T11:27:58;20.12;;;16.40;;
20861;SDS011;10591;52.532;13.348;2023-02-17T11:30:32;21.10;;;16.57;;
20861;SDS011;10591;52.532;13.348;2023-02-17T11:33:14;22.30;;;16.60;;
20861;SDS011;10591;52.532;13.348;2023-02-17T11:35:52;20.92;;;16.50;;
20861;SDS011;10591;52.532;13.348;2023-02-17T11:41:13;19.90;;;15.55;;
20861;SDS011;10591;52.532;13.348;2023-02-17T11:43:52;19.15;;;15.70;;
20861;SDS011;10591;52.532;13.348;2023-02-17T11:52:15;21.27;;;16.02;;
20861;SDS011;10591;52.532;13.348;2023-02-17T11:57:55;17.75;;;14.40;;
20861;SDS011;10591;52.532;13.348;2023-02-17T12:00:39;17.27;;;13.58;;
20861;SDS011;10591;52.532;13.348;2023-02-17T12:03:33;18.57;;;13.98;;
20861;SDS011;10591;52.532;13.348;2023-02-17T12:06:30;17.20;;;13.43;;
20861;SDS011;10591;52.532;13.348;2023-02-17T12:09:19;18.48;;;13.70;;
20861;SDS011;10591;52.532;13.348;2023-02-17T12:14:33;17.70;;;13.60;;
20861;SDS011;10591;52.532;13.348;2023-02-17T12:23:27;16.93;;;12.45;;
20861;SDS011;10591;52.532;13.348;2023-02-17T12:34:29;13.18;;;11.10;;
20861;SDS011;10591;52.532;13.348;2023-02-17T12:37:00;14.40;;;10.88;;
20861;SDS011;10591;52.532;13.348;2023-02-17T12:39:41;13.48;;;10.58;;
20861;SDS011;10591;52.532;13.348;2023-02-17T12:42:13;12.95;;;10.90;;
20861;SDS011;10591;52.532;13.348;2023-02-17T12:44:50;13.65;;;10.15;;
20861;SDS011;10591;52.532;13.348;2023-02-17T12:47:34;11.35;;;9.80;;
20861;SDS011;10591;52.532;13.348;2023-02-17T12:50:14;13.22;;;9.80;;
20861;SDS011;10591;52.532;13.348;2023-02-17T12:52:50;11.03;;;9.40;;
20861;SDS011;10591;52.532;13.348;2023-02-17T12:55:36;11.43;;;9.18;;
20861;SDS011;10591;52.532;13.348;2023-02-17T12:58:20;10.75;;;9.00;;
20861;SDS011;10591;52.532;13.348;2023-02-17T13:01:03;9.48;;;8.53;;
20861;SDS011;10591;52.532;13.348;2023-02-17T13:03:37;11.63;;;8.55;;
20861;SDS011;10591;52.532;13.348;2023-02-17T13:06:22;8.95;;;8.05;;
20861;SDS011;10591;52.532;13.348;2023-02-17T13:08:52;8.85;;;7.55;;
20861;SDS011;10591;52.532;13.348;2023-02-17T13:11:30;10.82;;;8.23;;
20861;SDS011;10591;52.532;13.348;2023-02-17T13:14:39;9.60;;;8.50;;
20861;SDS011;10591;52.532;13.348;2023-02-17T13:16:43;9.05;;;8.15;;
20861;SDS011;10591;52.532;13.348;2023-02-17T13:19:14;9.58;;;7.92;;
20861;SDS011;10591;52.532;13.348;2023-02-17T13:21:52;10.60;;;9.30;;
20861;SDS011;10591;52.532;13.348;2023-02-17T13:24:36;8.45;;;7.55;;
20861;SDS011;10591;52.532;13.348;2023-02-17T13:32:38;18.92;;;10.38;;
20861;SDS011;10591;52.532;13.348;2023-02-17T13:37:59;9.25;;;6.40;;
20861;SDS011;10591;52.532;13.348;2023-02-17T13:40:31;7.00;;;5.72;;
20861;SDS011;10591;52.532;13.348;2023-02-17T13:43:16;8.08;;;6.30;;
20861;SDS011;10591;52.532;13.348;2023-02-17T13:46:11;6.97;;;6.22;;
20861;SDS011;10591;52.532;13.348;2023-02-17T13:48:34;6.80;;;6.17;;
20861;SDS011;10591;52.532;13.348;2023-02-17T13:51:05;7.12;;;6.20;;
20861;SDS011;10591;52.532;13.348;2023-02-17T13:53:38;7.12;;;6.40;;
20861;SDS011;10591;52.532;13.348;2023-02-17T13:56:11;7.58;;;6.78;;
20861;SDS011;10591;52.532;13.348;2023-02-17T13:59:08;7.47;;;6.55;;
20861;SDS011;10591;52.532;13.348;2023-02-17T14:01:44;7.20;;;6.30;;
20861;SDS011;10591;52.532;13.348;2023-02-17T14:04:22;8.73;;;6.62;;
20861;SDS011;10591;52.532;13.348;2023-02-17T14:06:56;7.28;;;6.58;;
20861;SDS011;10591;52.532;13.348;2023-02-17T14:09:32;9.55;;;7.22;;
20861;SDS011;10591;52.532;13.348;2023-02-17T14:12:08;6.97;;;6.28;;
20861;SDS011;10591;52.532;13.348;2023-02-17T14:14:42;7.10;;;6.40;;
20861;SDS011;10591;52.532;13.348;2023-02-17T14:17:36;6.97;;;6.20;;
20861;SDS011;10591;52.532;13.348;2023-02-17T14:20:01;7.67;;;6.35;;
20861;SDS011;10591;52.532;13.348;2023-02-17T14:22:34;7.30;;;6.58;;
20861;SDS011;10591;52.532;13.348;2023-02-17T14:25:10;6.95;;;6.25;;
20861;SDS011;10591;52.532;13.348;2023-02-17T14:27:46;7.17;;;6.50;;
20861;SDS011;10591;52.532;13.348;2023-02-17T14:30:38;7.05;;;6.17;;
20861;SDS011;10591;52.532;13.348;2023-02-17T14:33:17;7.05;;;6.35;;
20861;SDS011;10591;52.532;13.348;2023-02-17T14:35:51;6.90;;;6.30;;
20861;SDS011;10591;52.532;13.348;2023-02-17T14:38:35;10.30;;;7.28;;
20861;SDS011;10591;52.532;13.348;2023-02-17T14:41:06;7.72;;;6.95;;
20861;SDS011;10591;52.532;13.348;2023-02-17T14:43:38;8.25;;;6.72;;
20861;SDS011;10591;52.532;13.348;2023-02-17T14:46:10;7.08;;;6.37;;
20861;SDS011;10591;52.532;13.348;2023-02-17T14:48:45;8.28;;;7.47;;
20861;SDS011;10591;52.532;13.348;2023-02-17T14:51:19;8.93;;;7.62;;
20861;SDS011;10591;52.532;13.348;2023-02-17T14:53:52;9.43;;;8.23;;
20861;SDS011;10591;52.532;13.348;2023-02-17T14:56:26;9.83;;;7.83;;
20861;SDS011;10591;52.532;13.348;2023-02-17T14:59:05;9.65;;;8.65;;
20861;SDS011;10591;52.532;13.348;2023-02-17T15:01:39;11.55;;;9.45;;
20861;SDS011;10591;52.532;13.348;2023-02-17T15:04:11;12.20;;;9.95;;
20861;SDS011;10591;52.532;13.348;2023-02-17T15:06:42;12.05;;;9.75;;
20861;SDS011;10591;52.532;13.348;2023-02-17T15:09:18;11.40;;;10.20;;
20861;SDS011;10591;52.532;13.348;2023-02-17T15:11:51;11.88;;;10.60;;
20861;SDS011;10591;52.532;13.348;2023-02-17T15:14:22;11.73;;;10.25;;
20861;SDS011;10591;52.532;13.348;2023-02-17T15:16:56;13.30;;;10.80;;
20861;SDS011;10591;52.532;13.348;2023-02-17T15:19:26;16.23;;;11.20;;
20861;SDS011;10591;52.532;13.348;2023-02-17T15:22:00;15.40;;;11.63;;
20861;SDS011;10591;52.532;13.348;2023-02-17T15:24:33;13.95;;;11.00;;
20861;SDS011;10591;52.532;13.348;2023-02-17T15:27:09;14.05;;;12.13;;
20861;SDS011;10591;52.532;13.348;2023-02-17T15:29:40;14.83;;;12.10;;
20861;SDS011;10591;52.532;13.348;2023-02-17T15:32:14;15.45;;;12.80;;
20861;SDS011;10591;52.532;13.348;2023-02-17T15:34:49;14.83;;;12.20;;
20861;SDS011;10591;52.532;13.348;2023-02-17T15:37:19;15.15;;;12.50;;
20861;SDS011;10591;52.532;13.348;2023-02-17T15:39:50;15.32;;;12.33;;
20861;SDS011;10591;52.532;13.348;2023-02-17T15:42:27;14.63;;;12.50;;
20861;SDS011;10591;52.532;13.348;2023-02-17T15:45:00;14.58;;;12.10;;
20861;SDS011;10591;52.532;13.348;2023-02-17T15:47:32;16.07;;;12.60;;
20861;SDS011;10591;52.532;13.348;2023-02-17T15:50:02;16.57;;;12.23;;
20861;SDS011;10591;52.532;13.348;2023-02-17T15:52:36;14.70;;;11.75;;
20861;SDS011;10591;52.532;13.348;2023-02-17T15:55:08;13.40;;;11.53;;
20861;SDS011;10591;52.532;13.348;2023-02-17T15:57:39;15.15;;;12.40;;
20861;SDS011;10591;52.532;13.348;2023-02-17T16:00:20;14.30;;;11.33;;
20861;SDS011;10591;52.532;13.348;2023-02-17T16:02:53;14.10;;;11.10;;
20861;SDS011;10591;52.532;13.348;2023-02-17T16:05:26;13.03;;;11.38;;
20861;SDS011;10591;52.532;13.348;2023-02-17T16:08:00;14.87;;;11.30;;
20861;SDS011;10591;52.532;13.348;2023-02-17T16:10:31;13.58;;;11.18;;